Forside
METAR-TAF:

METAR-TAF

Lufthavne :

Platteville, Wisconsin, USA

Breddekreds: 42-41-22N, længdekreds: 090-26-40W, højde: 312 m

Aktuelle vejr

Denne rapport blev lavet for 29 minutter siden, kl. 02:35 UTC
Vind 5 kt fra øst
Temperatur 23°C
Fugtighed 89%
Tryk 1012 hPa
Sigt: 16.1 km
skyfri

METAR: KPVB 250235Z AUTO 08005KT 10SM CLR 23/21 A2989 RMK AO1 T02260207

Tid: 22:04 (03:04 UTC)


TAF: fraværende

Vejrobservationer og prognoser fra mere end 4000 lufthavne (METAR og TAF).

De gule og røde prikker repræsenterer de meteorologiske stationer.

Flyt musen over at se navnet på stationen.

Så klik over at se vejr observationer og prognoser.

At skifte det kort: Klik på de grønne knapper med et sort kors for at zoome ind; på den grønne knap med en bindestreg for at zoome ud; eller på de grønne pile for tilstødende kort.


METAR-TAF: